Time;durP1;ratioP1;P1;durP2;ratioP2;P2;SDS_P1;SDS_P2;PMS_P1;PMS_P2;Temp;Humidity;BMP_temperature;BMP_pressure;BME280_temperature;BME280_humidity;BME280_pressure;Samples;Min_cycle;Max_cycle;Signal;HPM_P1;HPM_P2
2022/10/30 00:00:11;;;;;;;;;;;;;;;14.37;52.94;101079.28;4876495;28;127764;-65
2022/10/30 00:02:37;;;;;;;;;;;;;;;14.36;52.74;101082.28;4874573;28;112220;-66
2022/10/30 00:05:03;;;;;;;;;;;;;;;14.34;52.60;101077.13;4872165;28;126634;-66
2022/10/30 00:07:28;;;;;;;;;;;;;;;14.32;52.92;101076.63;4872754;28;97954;-66
2022/10/30 00:09:54;;;;;;;;;;;;;;;14.32;52.67;101073.09;4868654;28;127975;-65
2022/10/30 00:12:20;;;;;;;;;;;;;;;14.29;52.64;101062.78;4872415;28;127160;-65
2022/10/30 00:14:46;;;;;;;;;;;;;;;14.23;52.52;101065.53;4872066;28;127507;-66
2022/10/30 00:17:12;;;;;;;;;;;;;;;14.24;52.49;101071.75;4865362;28;122575;-65
2022/10/30 00:19:38;;;;;;;;;;;;;;;14.24;52.94;101069.06;4877005;28;126160;-65
2022/10/30 00:22:04;;;;;;;;;;;;;;;14.23;52.87;101054.69;4876087;28;128501;-65
2022/10/30 00:24:30;;;;;;;;;;;;;;;14.21;52.62;101056.84;4871844;28;106331;-65
2022/10/30 00:26:56;;;;;;;;;;;;;;;14.20;52.63;101057.16;4867185;28;111880;-66
2022/10/30 00:29:25;;;;;;;;;;;;;;;14.19;52.77;101061.75;4867771;28;127048;-65
2022/10/30 00:31:51;;;;;;;;;;;;;;;14.17;52.75;101061.22;4873245;28;98885;-65
2022/10/30 00:34:17;;;;;;;;;;;;;;;14.16;52.68;101050.66;4872740;28;126678;-65
2022/10/30 00:36:43;;;;;;;;;;;;;;;14.14;52.81;101042.78;4874795;28;98766;-65
2022/10/30 00:39:09;;;;;;;;;;;;;;;14.13;52.80;101048.50;4867589;28;128676;-64
2022/10/30 00:41:35;;;;;;;;;;;;;;;14.12;52.51;101044.16;4864648;28;127393;-66
2022/10/30 00:44:01;;;;;;;;;;;;;;;14.11;52.44;101047.94;4874267;28;98032;-66
2022/10/30 00:46:31;;;;;;;;;;;;;;;14.11;52.89;101047.94;4865130;28;121915;-64
2022/10/30 00:49:02;;;;;;;;;;;;;;;14.10;52.46;101046.31;4878150;28;98590;-66
2022/10/30 00:51:28;;;;;;;;;;;;;;;14.09;52.75;101042.00;4871276;28;124451;-66
2022/10/30 00:53:55;;;;;;;;;;;;;;;14.06;52.63;101043.34;4875272;28;98003;-67
2022/10/30 00:56:21;;;;;;;;;;;;;;;14.08;52.67;101049.31;4875296;28;117570;-66
2022/10/30 00:59:18;;;;;;;;;;;;;;;14.08;52.90;101043.91;4872137;28;129321;-67
2022/10/30 01:01:44;;;;;;;;;;;;;;;14.08;52.47;101048.50;4868141;28;119959;-65
2022/10/30 01:04:10;;;;;;;;;;;;;;;14.07;52.84;101053.13;4880129;28;127558;-67
2022/10/30 01:06:37;;;;;;;;;;;;;;;14.07;52.75;101045.00;4870797;28;121153;-66
2022/10/30 01:09:03;;;;;;;;;;;;;;;14.07;52.32;101046.88;4868140;28;127511;-66
2022/10/30 01:11:29;;;;;;;;;;;;;;;14.07;52.46;101045.00;4877361;28;123037;-65
2022/10/30 01:13:57;;;;;;;;;;;;;;;14.08;52.76;101038.47;4874281;28;122040;-65
2022/10/30 01:16:52;;;;;;;;;;;;;;;14.08;52.56;101024.94;4875041;28;98024;-66
2022/10/30 01:19:18;;;;;;;;;;;;;;;14.07;52.82;101031.44;4877738;28;98910;-65
2022/10/30 01:22:02;;;;;;;;;;;;;;;14.08;52.39;101029.53;4870011;28;98439;-66
2022/10/30 01:24:36;;;;;;;;;;;;;;;14.07;52.74;101030.59;4868338;28;98083;-66
2022/10/30 01:27:08;;;;;;;;;;;;;;;14.06;52.73;101037.94;4870397;28;123525;-65
2022/10/30 01:29:50;;;;;;;;;;;;;;;14.06;52.71;101031.69;4877622;28;128849;-65
2022/10/30 01:32:38;;;;;;;;;;;;;;;14.05;52.49;101019.25;4876515;28;98111;-66
2022/10/30 01:35:22;;;;;;;;;;;;;;;14.05;52.74;101020.06;4865596;28;97936;-65
2022/10/30 01:38:07;;;;;;;;;;;;;;;14.05;52.39;101019.25;4865041;28;98075;-66
2022/10/30 01:40:33;;;;;;;;;;;;;;;14.04;52.79;101020.34;4876786;28;126123;-65
2022/10/30 01:42:59;;;;;;;;;;;;;;;14.03;52.50;101016.00;4873909;28;128104;-66
2022/10/30 01:45:58;;;;;;;;;;;;;;;14.02;52.45;101006.25;4864389;28;105681;-66
2022/10/30 01:48:37;;;;;;;;;;;;;;;14.02;52.64;101006.25;4869350;28;122716;-66
2022/10/30 01:51:41;;;;;;;;;;;;;;;14.02;52.52;101003.53;4872773;28;98997;-65
2022/10/30 01:54:16;;;;;;;;;;;;;;;13.99;52.76;101004.91;4875323;28;98382;-65
2022/10/30 01:56:54;;;;;;;;;;;;;;;13.99;52.77;101000.31;4872176;28;125030;-66
2022/10/30 01:59:22;;;;;;;;;;;;;;;13.99;52.75;100985.94;4877201;28;98189;-66
2022/10/30 02:01:48;;;;;;;;;;;;;;;13.98;52.81;100985.09;4874578;28;128102;-65
2022/10/30 02:04:13;;;;;;;;;;;;;;;13.98;52.48;100982.41;4860494;28;128446;-66
2022/10/30 02:06:39;;;;;;;;;;;;;;;13.98;52.67;100979.69;4869631;28;124666;-66
2022/10/30 02:09:05;;;;;;;;;;;;;;;13.98;52.59;100981.59;4860178;28;124327;-66
2022/10/30 02:11:31;;;;;;;;;;;;;;;13.99;52.47;100980.53;4868011;28;118127;-65
2022/10/30 02:13:57;;;;;;;;;;;;;;;13.97;52.78;100978.06;4857536;28;119451;-65
2022/10/30 02:16:23;;;;;;;;;;;;;;;13.98;52.51;100981.59;4858427;28;98268;-66
2022/10/30 02:18:49;;;;;;;;;;;;;;;13.98;52.86;100990.53;4879478;28;122727;-67
2022/10/30 02:21:15;;;;;;;;;;;;;;;13.98;52.78;100995.94;4874643;28;126412;-65
2022/10/30 02:23:41;;;;;;;;;;;;;;;13.98;52.89;100995.13;4873126;28;128935;-64
2022/10/30 02:26:07;;;;;;;;;;;;;;;13.98;52.70;100995.94;4865935;28;127671;-67
2022/10/30 02:28:33;;;;;;;;;;;;;;;13.97;52.81;100988.91;4866610;28;120468;-66
2022/10/30 02:30:59;;;;;;;;;;;;;;;13.98;52.47;101004.06;4866745;28;128418;-65
2022/10/30 02:33:25;;;;;;;;;;;;;;;13.99;52.73;100999.50;4858777;28;111856;-66
2022/10/30 02:35:51;;;;;;;;;;;;;;;13.98;52.65;100998.66;4873710;28;123512;-66
2022/10/30 02:38:17;;;;;;;;;;;;;;;13.99;52.58;100999.50;4869744;28;98006;-66
2022/10/30 02:40:43;;;;;;;;;;;;;;;13.99;52.70;100996.78;4867784;28;127109;-66
2022/10/30 02:43:09;;;;;;;;;;;;;;;13.99;52.55;100996.78;4878996;28;127185;-66
2022/10/30 02:45:35;;;;;;;;;;;;;;;13.99;52.80;101002.22;4865632;28;127741;-66
2022/10/30 02:48:01;;;;;;;;;;;;;;;13.98;52.86;100995.94;4865301;28;121490;-66
2022/10/30 02:50:27;;;;;;;;;;;;;;;13.98;52.57;101005.97;4869080;28;126794;-65
2022/10/30 02:52:53;;;;;;;;;;;;;;;13.97;52.47;100997.03;4867085;28;128703;-65
2022/10/30 02:55:18;;;;;;;;;;;;;;;13.98;52.85;101008.69;4873090;28;126569;-67
2022/10/30 02:57:44;;;;;;;;;;;;;;;13.96;52.80;100997.34;4873059;28;122062;-67
2022/10/30 03:00:11;;;;;;;;;;;;;;;13.98;52.49;100998.66;4871093;28;103979;-67
2022/10/30 03:02:37;;;;;;;;;;;;;;;13.97;52.78;101004.38;4866134;28;101055;-66
2022/10/30 03:05:03;;;;;;;;;;;;;;;13.98;52.71;100997.84;4871266;28;127414;-66
2022/10/30 03:07:29;;;;;;;;;;;;;;;13.96;52.83;100991.91;4872641;28;116235;-66
2022/10/30 03:09:55;;;;;;;;;;;;;;;13.96;52.79;100997.34;4874057;28;112110;-66
2022/10/30 03:12:21;;;;;;;;;;;;;;;13.95;52.86;100993.81;4866372;28;126583;-66
2022/10/30 03:14:47;;;;;;;;;;;;;;;13.93;52.45;100995.97;4876593;28;127863;-66
2022/10/30 03:17:13;;;;;;;;;;;;;;;13.93;52.58;100995.97;4871998;28;119495;-65
2022/10/30 03:19:39;;;;;;;;;;;;;;;13.93;52.51;100992.47;4869745;28;128116;-66
2022/10/30 03:22:05;;;;;;;;;;;;;;;13.92;52.67;100991.66;4871639;28;99612;-66
2022/10/30 03:24:31;;;;;;;;;;;;;;;13.92;52.81;100994.38;4864387;28;121979;-65
2022/10/30 03:26:57;;;;;;;;;;;;;;;13.92;52.75;100993.56;4866637;28;121940;-66
2022/10/30 03:29:23;;;;;;;;;;;;;;;13.92;52.93;100985.44;4866589;28;127970;-65
2022/10/30 03:31:49;;;;;;;;;;;;;;;13.92;52.52;100975.38;4870202;28;127541;-66
2022/10/30 03:34:15;;;;;;;;;;;;;;;13.93;52.59;100976.19;4867067;28;127029;-66
2022/10/30 03:36:41;;;;;;;;;;;;;;;13.92;52.41;100977.28;4867475;28;121624;-66
2022/10/30 03:39:07;;;;;;;;;;;;;;;13.92;52.57;100972.69;4876673;28;98446;-66
2022/10/30 03:41:33;;;;;;;;;;;;;;;13.92;52.52;100959.13;4876118;28;98895;-66
2022/10/30 03:43:59;;;;;;;;;;;;;;;13.91;52.60;100957.53;4868370;28;127851;-66
2022/10/30 03:46:25;;;;;;;;;;;;;;;13.92;52.88;100959.13;4868024;28;98006;-65
2022/10/30 03:48:51;;;;;;;;;;;;;;;13.92;52.83;100974.59;4870292;28;127946;-66
2022/10/30 03:51:17;;;;;;;;;;;;;;;13.91;52.94;100983.78;4871211;28;98353;-66
2022/10/30 03:53:42;;;;;;;;;;;;;;;13.91;52.47;100965.66;4872115;28;128662;-66
2022/10/30 03:56:09;;;;;;;;;;;;;;;13.91;52.77;100960.22;4875427;28;124288;-65
2022/10/30 03:58:35;;;;;;;;;;;;;;;13.92;52.53;100955.63;4878669;28;116504;-65
2022/10/30 04:01:02;;;;;;;;;;;;;;;13.92;52.58;100956.41;4877348;28;127091;-67
2022/10/30 04:03:27;;;;;;;;;;;;;;;13.92;52.61;100977.28;4877034;28;124694;-66
2022/10/30 04:05:53;;;;;;;;;;;;;;;13.92;52.60;100986.22;4866763;28;121702;-66
2022/10/30 04:08:19;;;;;;;;;;;;;;;13.91;52.56;100984.63;4871631;28;123732;-67
2022/10/30 04:10:46;;;;;;;;;;;;;;;13.92;52.54;100975.38;4871151;28;128490;-66
2022/10/30 04:13:12;;;;;;;;;;;;;;;13.91;52.49;100959.38;4871433;28;121612;-66
2022/10/30 04:15:38;;;;;;;;;;;;;;;13.91;52.87;100951.25;4879414;28;97829;-65
2022/10/30 04:18:04;;;;;;;;;;;;;;;13.92;52.61;100952.91;4872420;28;98455;-66
2022/10/30 04:20:30;;;;;;;;;;;;;;;13.91;52.90;100962.94;4869033;28;112353;-65
2022/10/30 04:23:02;;;;;;;;;;;;;;;13.92;52.75;100961.03;4878690;28;127700;-65
2022/10/30 04:25:28;;;;;;;;;;;;;;;13.91;52.89;100962.09;4856683;28;98046;-66
2022/10/30 04:27:54;;;;;;;;;;;;;;;13.91;52.57;100965.66;4863399;28;98020;-67
2022/10/30 04:30:20;;;;;;;;;;;;;;;13.91;52.52;100972.94;4869185;28;98414;-66
2022/10/30 04:32:50;;;;;;;;;;;;;;;13.89;52.57;100970.53;4868668;28;97998;-66
2022/10/30 04:35:16;;;;;;;;;;;;;;;13.90;52.85;100980.25;4880311;28;97874;-66
2022/10/30 04:37:42;;;;;;;;;;;;;;;13.90;52.50;100985.69;4873812;28;98184;-66
2022/10/30 04:40:08;;;;;;;;;;;;;;;13.89;52.89;100981.34;4872352;28;128893;-66
2022/10/30 04:42:34;;;;;;;;;;;;;;;13.89;52.92;100977.84;4868752;28;115789;-66
2022/10/30 04:45:01;;;;;;;;;;;;;;;13.87;52.69;100975.41;4870086;28;123410;-65
2022/10/30 04:47:28;;;;;;;;;;;;;;;13.87;52.97;100963.75;4870664;28;98573;-66
2022/10/30 04:49:54;;;;;;;;;;;;;;;13.85;52.92;100963.22;4868952;28;126911;-66
2022/10/30 04:52:20;;;;;;;;;;;;;;;13.84;52.65;100977.88;4869048;28;98202;-66
2022/10/30 04:54:45;;;;;;;;;;;;;;;13.83;52.68;100995.19;4868653;28;122842;-66
2022/10/30 04:57:11;;;;;;;;;;;;;;;13.82;52.98;100982.75;4876437;28;127395;-65
2022/10/30 04:59:37;;;;;;;;;;;;;;;13.82;52.83;100969.19;4870922;28;127230;-66
2022/10/30 05:02:03;;;;;;;;;;;;;;;13.81;52.88;100951.31;4878994;28;117022;-65
2022/10/30 05:04:29;;;;;;;;;;;;;;;13.79;52.84;100951.56;4869385;28;103733;-66
2022/10/30 05:06:55;;;;;;;;;;;;;;;13.78;52.82;100955.38;4870198;28;128735;-67
2022/10/30 05:09:21;;;;;;;;;;;;;;;13.79;52.58;100964.31;4872060;28;102402;-66
2022/10/30 05:11:47;;;;;;;;;;;;;;;13.77;52.66;100953.78;4870642;28;106452;-66
2022/10/30 05:14:13;;;;;;;;;;;;;;;13.77;52.96;100948.34;4868612;28;123152;-66
2022/10/30 05:16:39;;;;;;;;;;;;;;;13.77;53.03;100937.50;4867327;28;128116;-66
2022/10/30 05:19:04;;;;;;;;;;;;;;;13.77;52.62;100932.09;4877701;28;127750;-67
2022/10/30 05:21:30;;;;;;;;;;;;;;;13.75;53.02;100936.97;4874851;28;128444;-66
2022/10/30 05:23:56;;;;;;;;;;;;;;;13.74;52.68;100936.16;4873811;28;122625;-67
2022/10/30 05:26:22;;;;;;;;;;;;;;;13.73;52.68;100945.38;4870677;28;127612;-67
2022/10/30 05:28:48;;;;;;;;;;;;;;;13.72;52.76;100932.94;4872165;28;109998;-66
2022/10/30 05:31:14;;;;;;;;;;;;;;;13.72;52.55;100934.84;4877892;28;129286;-66
2022/10/30 05:33:40;;;;;;;;;;;;;;;13.72;52.65;100929.41;4870944;28;123546;-66
2022/10/30 05:36:06;;;;;;;;;;;;;;;13.69;52.97;100933.47;4868411;28;126471;-66
2022/10/30 05:38:32;;;;;;;;;;;;;;;13.69;52.76;100928.06;4879079;28;128907;-67
2022/10/30 05:40:58;;;;;;;;;;;;;;;13.67;52.53;100932.13;4878677;28;127684;-66
2022/10/30 05:43:24;;;;;;;;;;;;;;;13.66;52.60;100935.94;4873920;28;122436;-65
2022/10/30 05:45:49;;;;;;;;;;;;;;;13.66;52.98;100939.44;4866570;28;128276;-65
2022/10/30 05:48:15;;;;;;;;;;;;;;;13.65;52.95;100945.16;4872293;28;126613;-67
2022/10/30 05:50:41;;;;;;;;;;;;;;;13.66;52.57;100952.19;4869793;28;97998;-66
2022/10/30 05:53:08;;;;;;;;;;;;;;;13.64;52.85;100952.47;4872593;28;97993;-66
2022/10/30 05:55:35;;;;;;;;;;;;;;;13.65;52.84;100953.28;4871261;28;128304;-67
2022/10/30 05:58:02;;;;;;;;;;;;;;;13.65;52.68;100955.97;4856168;28;98500;-67
2022/10/30 06:00:30;;;;;;;;;;;;;;;13.67;52.57;100978.97;4868516;28;125692;-65
2022/10/30 06:03:00;;;;;;;;;;;;;;;13.67;52.62;100976.28;4877898;28;97933;-66
2022/10/30 06:05:26;;;;;;;;;;;;;;;13.68;52.71;100982.53;4873838;28;98895;-66
2022/10/30 06:07:55;;;;;;;;;;;;;;;13.68;52.92;100974.41;4865278;28;127981;-66
2022/10/30 06:10:24;;;;;;;;;;;;;;;13.69;52.92;100963.28;4868190;28;99586;-66
2022/10/30 06:12:57;;;;;;;;;;;;;;;13.70;52.92;100969.50;4871406;28;97993;-65
2022/10/30 06:15:23;;;;;;;;;;;;;;;13.70;52.52;100973.03;4869662;28;128090;-65
2022/10/30 06:17:49;;;;;;;;;;;;;;;13.73;52.68;100968.97;4873852;28;127978;-67
2022/10/30 06:20:15;;;;;;;;;;;;;;;13.74;52.76;100971.38;4871953;28;99243;-66
2022/10/30 06:22:41;;;;;;;;;;;;;;;13.76;52.80;100965.69;4867919;28;113574;-66
2022/10/30 06:25:07;;;;;;;;;;;;;;;13.79;52.47;100964.31;4871004;28;101988;-66
2022/10/30 06:27:34;;;;;;;;;;;;;;;13.82;52.74;100969.19;4865276;28;128208;-66
2022/10/30 06:30:00;;;;;;;;;;;;;;;13.83;52.67;100968.91;4869888;28;98630;-65
2022/10/30 06:32:25;;;;;;;;;;;;;;;13.85;52.42;100964.03;4868303;28;121433;-65
2022/10/30 06:34:51;;;;;;;;;;;;;;;13.90;52.57;100972.13;4873256;28;127315;-67
2022/10/30 06:37:17;;;;;;;;;;;;;;;13.94;52.49;100975.91;4874509;28;127900;-66
2022/10/30 06:39:43;;;;;;;;;;;;;;;14.00;52.32;100982.94;4871515;28;125528;-66
2022/10/30 06:42:09;;;;;;;;;;;;;;;14.02;52.27;100971.81;4870224;28;123147;-66
2022/10/30 06:44:35;;;;;;;;;;;;;;;14.06;52.45;100977.50;4860073;28;126751;-66
2022/10/30 06:47:01;;;;;;;;;;;;;;;14.08;52.13;100983.47;4873607;28;128825;-66
2022/10/30 06:49:27;;;;;;;;;;;;;;;14.09;52.63;100980.47;4873376;28;127775;-66
2022/10/30 06:51:53;;;;;;;;;;;;;;;14.13;52.50;101002.41;4868690;28;120652;-65
2022/10/30 06:54:19;;;;;;;;;;;;;;;14.15;52.30;100997.53;4865566;28;129236;-67
2022/10/30 06:56:49;;;;;;;;;;;;;;;14.18;52.40;101000.47;4869382;28;128500;-66
2022/10/30 06:59:15;;;;;;;;;;;;;;;14.21;52.58;101005.34;4871526;28;98332;-65
2022/10/30 07:01:41;;;;;;;;;;;;;;;14.23;52.43;101003.19;4872326;28;122541;-67
2022/10/30 07:04:07;;;;;;;;;;;;;;;14.27;52.12;100989.88;4871717;28;129681;-66
2022/10/30 07:06:33;;;;;;;;;;;;;;;14.34;51.96;100987.66;4867124;28;127304;-65
2022/10/30 07:08:58;;;;;;;;;;;;;;;14.42;52.20;100999.81;4875486;28;127450;-66
2022/10/30 07:11:24;;;;;;;;;;;;;;;14.46;52.20;100984.59;4872301;28;120140;-66
2022/10/30 07:13:50;;;;;;;;;;;;;;;14.52;51.90;100997.06;4865867;28;98712;-65
2022/10/30 07:16:16;;;;;;;;;;;;;;;14.56;51.86;101000.03;4867937;28;127964;-67
2022/10/30 07:18:42;;;;;;;;;;;;;;;14.60;52.08;100993.78;4869270;28;124502;-65
2022/10/30 07:21:08;;;;;;;;;;;;;;;14.67;51.91;100985.31;4875360;28;122028;-66
2022/10/30 07:23:34;;;;;;;;;;;;;;;14.71;52.04;100979.03;4877663;28;128252;-65
2022/10/30 07:26:00;;;;;;;;;;;;;;;14.78;52.09;100981.44;4870910;28;127220;-67
2022/10/30 07:28:26;;;;;;;;;;;;;;;14.89;51.85;100979.44;4855100;28;126475;-67
2022/10/30 07:30:52;;;;;;;;;;;;;;;14.97;51.85;100997.84;4872860;28;121816;-66
2022/10/30 07:33:18;;;;;;;;;;;;;;;15.04;51.88;100984.75;4870528;28;128321;-65
2022/10/30 07:35:43;;;;;;;;;;;;;;;15.17;51.58;100975.16;4874687;28;126871;-66
2022/10/30 07:38:10;;;;;;;;;;;;;;;15.30;51.62;100965.53;4874611;28;128063;-65
2022/10/30 07:40:36;;;;;;;;;;;;;;;15.42;51.50;100972.19;4872516;28;98197;-67
2022/10/30 07:43:02;;;;;;;;;;;;;;;15.51;51.43;100966.94;4878958;28;128518;-67
2022/10/30 07:45:28;;;;;;;;;;;;;;;15.64;51.22;100977.13;4874109;28;99248;-65
2022/10/30 07:47:54;;;;;;;;;;;;;;;15.84;50.98;100983.47;4868752;28;98629;-65
2022/10/30 07:50:20;;;;;;;;;;;;;;;15.87;51.16;100961.91;4867089;28;123014;-66
2022/10/30 07:52:46;;;;;;;;;;;;;;;16.14;50.71;100960.50;4874716;28;98748;-66
2022/10/30 07:55:12;;;;;;;;;;;;;;;16.51;50.21;100973.31;4869785;28;125696;-66
2022/10/30 07:57:39;;;;;;;;;;;;;;;16.67;50.23;100980.16;4876677;28;125632;-66
2022/10/30 08:00:06;;;;;;;;;;;;;;;16.77;50.18;100972.94;4868610;28;123781;-66
2022/10/30 08:02:32;;;;;;;;;;;;;;;17.25;49.45;100972.69;4872761;28;125280;-66
2022/10/30 08:04:58;;;;;;;;;;;;;;;17.30;49.79;100970.69;4877487;28;126939;-66
2022/10/30 08:07:32;;;;;;;;;;;;;;;17.61;49.53;100970.13;4873147;28;126794;-68
2022/10/30 08:09:58;;;;;;;;;;;;;;;17.83;49.24;100970.25;4871516;28;107000;-66
2022/10/30 08:12:24;;;;;;;;;;;;;;;17.99;49.19;100978.91;4873782;28;103862;-67
2022/10/30 08:14:51;;;;;;;;;;;;;;;18.11;49.33;100972.94;4871365;28;99533;-66
2022/10/30 08:17:17;;;;;;;;;;;;;;;18.27;49.29;100979.66;4875414;28;97899;-66
2022/10/30 08:19:43;;;;;;;;;;;;;;;18.52;49.10;100975.59;4875358;28;98074;-65
2022/10/30 08:22:09;;;;;;;;;;;;;;;18.95;48.81;100982.53;4870950;28;127499;-66
2022/10/30 08:24:35;;;;;;;;;;;;;;;19.13;48.86;100979.56;4869440;28;128168;-65
2022/10/30 08:27:01;;;;;;;;;;;;;;;19.40;48.50;100983.25;4875601;28;127614;-67
2022/10/30 08:29:27;;;;;;;;;;;;;;;19.34;49.17;100990.81;4874175;28;97850;-67
2022/10/30 08:31:53;;;;;;;;;;;;;;;19.05;49.78;100982.25;3999102;28;10001210;-66
2022/10/30 08:34:19;;;;;;;;;;;;;;;18.91;50.04;100981.53;4871115;28;97847;-66
2022/10/30 08:36:48;;;;;;;;;;;;;;;18.85;50.18;100972.66;4872550;28;98566;-66
2022/10/30 08:39:15;;;;;;;;;;;;;;;19.66;48.91;100968.94;4878430;28;98537;-66
2022/10/30 08:41:41;;;;;;;;;;;;;;;20.37;48.05;100963.31;4876206;28;107149;-66
2022/10/30 08:44:06;;;;;;;;;;;;;;;20.87;47.77;100962.81;4877863;28;122973;-67
2022/10/30 08:46:32;;;;;;;;;;;;;;;21.27;47.72;100966.13;4879927;28;128677;-66
2022/10/30 08:48:58;;;;;;;;;;;;;;;21.63;47.51;100967.63;4873197;28;121384;-67
2022/10/30 08:51:24;;;;;;;;;;;;;;;22.02;47.58;100967.25;4874453;28;98159;-66
2022/10/30 08:53:50;;;;;;;;;;;;;;;22.40;47.44;100969.13;4869256;28;123448;-66
2022/10/30 08:56:16;;;;;;;;;;;;;;;22.77;47.44;100964.59;4867180;28;128077;-66
2022/10/30 08:58:42;;;;;;;;;;;;;;;23.12;47.60;100975.28;4873640;28;98274;-67
2022/10/30 09:01:08;;;;;;;;;;;;;;;23.44;47.19;100970.88;4873919;28;127679;-66
2022/10/30 09:03:34;;;;;;;;;;;;;;;23.78;47.44;100966.09;4873222;28;121328;-67
2022/10/30 09:06:00;;;;;;;;;;;;;;;24.10;47.15;100969.84;4884664;28;99923;-68
2022/10/30 09:08:26;;;;;;;;;;;;;;;24.39;47.34;100970.72;4880946;28;98491;-68
2022/10/30 09:10:56;;;;;;;;;;;;;;;24.66;47.09;100972.69;4873473;28;110651;-68
2022/10/30 09:13:22;;;;;;;;;;;;;;;24.92;47.10;100965.94;4878543;28;98056;-67
2022/10/30 09:15:48;;;;;;;;;;;;;;;25.13;47.32;100962.97;4874078;28;98615;-67
2022/10/30 09:18:14;;;;;;;;;;;;;;;25.31;47.18;100974.44;4876460;28;128246;-67
2022/10/30 09:20:40;;;;;;;;;;;;;;;25.47;47.35;100975.28;4880755;28;128117;-68
2022/10/30 09:23:06;;;;;;;;;;;;;;;25.64;47.43;100974.91;4869691;28;121777;-67
2022/10/30 09:25:32;;;;;;;;;;;;;;;25.84;47.52;100969.50;4873866;28;98853;-67
2022/10/30 09:27:58;;;;;;;;;;;;;;;26.00;47.58;100967.50;4873640;28;128137;-67
2022/10/30 09:30:24;;;;;;;;;;;;;;;26.17;47.73;100967.09;4877057;28;125572;-68
2022/10/30 09:33:01;;;;;;;;;;;;;;;26.35;47.45;100964.72;4881699;28;121972;-68
2022/10/30 09:35:26;;;;;;;;;;;;;;;26.54;47.70;100969.47;4877607;28;97906;-67
2022/10/30 09:37:53;;;;;;;;;;;;;;;26.83;47.67;100970.03;4871191;28;124224;-67
2022/10/30 09:40:38;;;;;;;;;;;;;;;27.13;47.39;100979.34;4873026;28;127707;-67
2022/10/30 09:43:18;;;;;;;;;;;;;;;27.33;47.59;100968.22;4865792;28;118230;-67
2022/10/30 09:46:03;;;;;;;;;;;;;;;27.39;47.74;100966.72;4862325;28;98825;-68
2022/10/30 09:48:40;;;;;;;;;;;;;;;27.13;48.06;100973.00;4877179;28;98716;-68
2022/10/30 09:51:18;;;;;;;;;;;;;;;26.67;48.79;100976.44;4870587;28;126698;-67
2022/10/30 09:53:52;;;;;;;;;;;;;;;26.56;48.76;100967.13;4875277;28;98055;-66
2022/10/30 09:56:30;;;;;;;;;;;;;;;26.57;48.66;100974.28;4870808;28;126720;-67
2022/10/30 09:59:32;;;;;;;;;;;;;;;26.50;48.56;100979.66;4869772;28;98786;-66
2022/10/30 10:02:03;;;;;;;;;;;;;;;26.40;48.80;100980.19;4868996;28;98113;-67
2022/10/30 10:04:43;;;;;;;;;;;;;;;26.35;48.78;100983.25;4872558;28;98014;-68
2022/10/30 10:07:36;;;;;;;;;;;;;;;26.34;48.75;100979.69;4865985;28;126363;-67
2022/10/30 10:10:35;;;;;;;;;;;;;;;26.40;48.50;100975.47;4869798;28;123117;-66
2022/10/30 10:13:01;;;;;;;;;;;;;;;26.63;48.40;100983.06;4875321;28;121900;-65
2022/10/30 10:15:27;;;;;;;;;;;;;;;26.91;47.99;100982.84;4859915;28;121547;-65
2022/10/30 10:17:53;;;;;;;;;;;;;;;27.10;47.82;100980.06;4876804;28;101554;-66
2022/10/30 10:20:31;;;;;;;;;;;;;;;27.41;47.77;100983.78;4873397;28;128187;-66
2022/10/30 10:22:58;;;;;;;;;;;;;;;29.01;45.27;100968.63;4869917;28;122642;-66
2022/10/30 10:25:24;;;;;;;;;;;;;;;30.69;43.08;100980.09;4872946;28;121744;-65
2022/10/30 10:28:20;;;;;;;;;;;;;;;31.43;42.44;100987.84;4875732;28;128315;-66
2022/10/30 10:31:07;;;;;;;;;;;;;;;32.43;42.13;100987.72;4872736;28;122996;-65
2022/10/30 10:33:37;;;;;;;;;;;;;;;33.16;41.58;100983.34;4883142;28;126958;-66
2022/10/30 10:36:19;;;;;;;;;;;;;;;33.96;40.78;100974.69;4870465;28;121373;-66
2022/10/30 10:38:55;;;;;;;;;;;;;;;34.77;40.58;100974.13;4878368;28;98236;-66
2022/10/30 10:41:29;;;;;;;;;;;;;;;35.13;40.63;100979.22;4872493;28;106113;-66
2022/10/30 10:44:04;;;;;;;;;;;;;;;35.01;40.90;100975.00;4862651;28;124241;-66
2022/10/30 10:46:41;;;;;;;;;;;;;;;34.66;41.80;100967.88;4874395;28;97675;-66
2022/10/30 10:49:25;;;;;;;;;;;;;;;34.17;42.49;100970.88;4862862;28;116403;-66
2022/10/30 10:51:58;;;;;;;;;;;;;;;33.55;43.94;100957.13;4876435;28;100124;-66
2022/10/30 10:54:58;;;;;;;;;;;;;;;32.82;44.34;100963.63;4874966;28;125185;-65
2022/10/30 10:57:31;;;;;;;;;;;;;;;31.67;46.16;100950.03;4852994;28;98718;-66
2022/10/30 11:00:12;;;;;;;;;;;;;;;30.85;46.91;100949.16;4876525;28;98463;-65
2022/10/30 11:02:55;;;;;;;;;;;;;;;30.14;47.76;100946.88;4877891;28;102126;-65
2022/10/30 11:05:29;;;;;;;;;;;;;;;29.44;48.38;100935.69;4876597;28;124259;-65
2022/10/30 11:08:01;;;;;;;;;;;;;;;28.98;48.15;100947.19;4869818;28;98371;-65
2022/10/30 11:10:27;;;;;;;;;;;;;;;28.56;48.76;100948.28;4877653;28;100064;-65
2022/10/30 11:12:53;;;;;;;;;;;;;;;28.19;48.73;100942.66;4883437;28;128126;-65
2022/10/30 11:15:52;;;;;;;;;;;;;;;27.86;49.11;100940.59;4877541;28;126235;-65
2022/10/30 11:18:18;;;;;;;;;;;;;;;27.50;49.42;100937.25;4875325;28;108042;-65
2022/10/30 11:20:50;;;;;;;;;;;;;;;27.24;49.41;100934.47;4869185;28;127974;-65
2022/10/30 11:23:42;;;;;;;;;;;;;;;26.97;49.42;100941.88;4885527;28;100576;-65
2022/10/30 11:26:17;;;;;;;;;;;;;;;26.69;49.51;100937.41;4876543;28;98418;-65
2022/10/30 11:28:55;;;;;;;;;;;;;;;26.46;49.73;100934.56;4874882;28;98175;-65
2022/10/30 11:31:36;;;;;;;;;;;;;;;26.22;50.00;100927.34;4877266;28;113607;-65
2022/10/30 11:34:17;;;;;;;;;;;;;;;25.99;49.94;100930.00;4880590;28;98229;-65
2022/10/30 11:36:50;;;;;;;;;;;;;;;25.78;50.13;100932.25;4881875;28;98648;-65
2022/10/30 11:39:23;;;;;;;;;;;;;;;25.56;50.10;100926.22;4877228;28;115943;-65
2022/10/30 11:42:06;;;;;;;;;;;;;;;25.35;50.33;100923.75;4873772;28;98997;-65
2022/10/30 11:44:42;;;;;;;;;;;;;;;25.14;50.20;100915.72;4866042;28;99010;-65
2022/10/30 11:47:09;;;;;;;;;;;;;;;24.96;50.26;100922.72;4875055;28;98039;-65
2022/10/30 11:49:36;;;;;;;;;;;;;;;24.82;50.41;100927.84;4875818;28;115363;-64
2022/10/30 11:52:02;;;;;;;;;;;;;;;24.64;50.40;100919.09;4876512;28;99017;-64
2022/10/30 11:54:28;;;;;;;;;;;;;;;24.47;50.43;100921.00;4866407;28;126436;-66
2022/10/30 11:56:54;;;;;;;;;;;;;;;24.32;50.29;100927.22;4881326;28;98266;-64
2022/10/30 11:59:21;;;;;;;;;;;;;;;24.17;50.63;100922.44;4881706;28;98344;-64
2022/10/30 12:01:57;;;;;;;;;;;;;;;24.02;50.51;100918.47;4861868;28;98644;-65
2022/10/30 12:04:26;;;;;;;;;;;;;;;23.88;50.52;100924.34;4883842;28;99044;-64
2022/10/30 12:07:29;;;;;;;;;;;;;;;23.74;50.70;100926.66;4880597;28;97956;-64
2022/10/30 12:09:59;;;;;;;;;;;;;;;23.61;50.78;100925.81;4876066;28;98228;-64
2022/10/30 12:12:37;;;;;;;;;;;;;;;23.50;50.90;100922.75;4872364;28;98578;-65
2022/10/30 12:15:14;;;;;;;;;;;;;;;23.40;50.88;100930.63;4874640;28;125406;-64
2022/10/30 12:17:40;;;;;;;;;;;;;;;23.32;50.52;100926.06;4878934;28;98920;-65
2022/10/30 12:20:07;;;;;;;;;;;;;;;23.22;50.77;100921.78;4870534;28;97932;-67
2022/10/30 12:22:33;;;;;;;;;;;;;;;23.15;50.55;100918.81;4859905;28;98544;-67
2022/10/30 12:25:00;;;;;;;;;;;;;;;23.06;50.77;100921.66;4864907;28;98932;-67
2022/10/30 12:27:26;;;;;;;;;;;;;;;22.98;50.89;100923.34;4872974;28;104402;-67
2022/10/30 12:30:05;;;;;;;;;;;;;;;22.90;50.83;100913.22;4879111;28;106648;-67
2022/10/30 12:32:41;;;;;;;;;;;;;;;22.85;50.84;100918.13;4873188;28;99243;-67
2022/10/30 12:35:18;;;;;;;;;;;;;;;22.77;50.56;100915.13;4857917;28;99701;-67
2022/10/30 12:37:43;;;;;;;;;;;;;;;22.72;50.47;100911.81;4872120;28;98439;-67
2022/10/30 12:40:25;;;;;;;;;;;;;;;22.67;50.91;100918.28;4870623;28;122856;-67